createdAt,value
2018-01-25T00:02:06.911Z,1.60
2018-01-25T00:04:34.457Z,1.73
2018-01-25T00:07:01.956Z,1.40
2018-01-25T00:09:30.427Z,1.40
2018-01-25T00:11:58.042Z,1.33
2018-01-25T00:14:25.544Z,1.30
2018-01-25T00:16:53.022Z,1.43
2018-01-25T00:19:21.288Z,1.60
2018-01-25T00:21:50.858Z,1.77
2018-01-25T00:24:18.360Z,1.77
2018-01-25T00:26:46.619Z,1.90
2018-01-25T00:29:14.201Z,1.90
2018-01-25T00:31:41.695Z,2.10
2018-01-25T00:34:10.211Z,2.17
2018-01-25T00:36:38.511Z,1.87
2018-01-25T00:39:06.810Z,1.30
2018-01-25T00:41:34.311Z,1.10
2018-01-25T00:44:01.813Z,0.90
2018-01-25T00:46:30.297Z,1.10
2018-01-25T00:48:58.557Z,1.00
2018-01-25T00:51:26.032Z,0.90
2018-01-25T00:53:54.325Z,0.90
2018-01-25T00:56:22.827Z,0.90
2018-01-25T00:58:50.338Z,1.00
2018-01-25T01:01:18.615Z,1.10
2018-01-25T01:03:46.172Z,0.87
2018-01-25T01:06:14.444Z,1.10
2018-01-25T01:08:42.738Z,1.17
2018-01-25T01:11:10.240Z,1.00
2018-01-25T01:13:37.751Z,1.10
2018-01-25T01:16:05.259Z,1.10
2018-01-25T01:18:32.833Z,1.10
2018-01-25T01:21:00.392Z,1.03
2018-01-25T01:23:27.962Z,1.20
2018-01-25T01:25:56.244Z,1.13
2018-01-25T01:28:24.505Z,1.30
2018-01-25T01:30:51.997Z,1.10
2018-01-25T01:33:20.276Z,1.10
2018-01-25T01:35:48.230Z,1.20
2018-01-25T01:38:16.486Z,1.17
2018-01-25T01:40:43.966Z,0.97
2018-01-25T01:43:12.215Z,1.07
2018-01-25T01:45:39.701Z,1.20
2018-01-25T01:48:07.951Z,1.63
2018-01-25T01:50:35.419Z,1.30
2018-01-25T01:53:03.707Z,1.37
2018-01-25T01:55:32.016Z,1.50
2018-01-25T01:57:59.493Z,1.37
2018-01-25T02:00:27.012Z,2.07
2018-01-25T02:02:54.503Z,1.30
2018-01-25T02:05:22.018Z,1.80
2018-01-25T02:07:50.646Z,1.63
2018-01-25T02:10:18.120Z,2.00
2018-01-25T02:12:45.772Z,1.77
2018-01-25T02:15:13.330Z,2.13
2018-01-25T02:17:40.814Z,2.00
2018-01-25T02:20:11.033Z,2.10
2018-01-25T02:22:39.304Z,1.90
2018-01-25T02:25:06.791Z,1.53
2018-01-25T02:27:36.041Z,1.93
2018-01-25T02:30:03.563Z,1.50
2018-01-25T02:32:31.055Z,1.30
2018-01-25T02:34:59.433Z,0.93
2018-01-25T02:37:26.912Z,0.93
2018-01-25T02:39:55.105Z,1.00
2018-01-25T02:42:23.481Z,0.80
2018-01-25T02:44:51.698Z,0.90
2018-01-25T02:47:19.771Z,1.00
2018-01-25T02:49:49.060Z,0.90
2018-01-25T02:52:16.688Z,0.80
2018-01-25T02:54:45.001Z,0.70
2018-01-25T02:57:12.482Z,0.93
2018-01-25T02:59:39.936Z,0.97
2018-01-25T03:02:07.433Z,0.90
2018-01-25T03:04:35.770Z,1.00
2018-01-25T03:07:03.311Z,0.93
2018-01-25T03:09:30.913Z,0.90
2018-01-25T03:11:58.446Z,0.87
2018-01-25T03:14:26.880Z,0.90
2018-01-25T03:16:55.920Z,1.00
2018-01-25T03:19:23.397Z,1.10
2018-01-25T03:21:50.861Z,1.20
2018-01-25T03:24:18.353Z,1.10
2018-01-25T03:26:45.872Z,1.20
2018-01-25T03:29:13.356Z,1.27
2018-01-25T03:31:42.076Z,1.30
2018-01-25T03:34:10.532Z,1.10
2018-01-25T03:36:38.068Z,1.10
2018-01-25T03:39:06.284Z,1.27
2018-01-25T03:41:33.770Z,1.30
2018-01-25T03:44:02.091Z,1.20
2018-01-25T03:46:31.294Z,1.10
2018-01-25T03:49:00.538Z,1.20
2018-01-25T03:51:28.024Z,1.10
2018-01-25T03:53:55.485Z,1.30
2018-01-25T03:56:23.725Z,1.00
2018-01-25T03:58:51.181Z,1.20
2018-01-25T04:01:18.668Z,1.20
2018-01-25T04:03:46.120Z,0.90
2018-01-25T04:06:13.596Z,1.30
2018-01-25T04:08:41.820Z,1.10
2018-01-25T04:11:09.368Z,1.10
2018-01-25T04:13:37.810Z,1.17
2018-01-25T04:16:06.163Z,1.00
2018-01-25T04:18:33.632Z,1.43
2018-01-25T04:21:01.873Z,1.10
2018-01-25T04:23:29.333Z,1.40
2018-01-25T04:25:56.788Z,1.20
2018-01-25T04:28:24.348Z,1.90
2018-01-25T04:30:53.726Z,1.00
2018-01-25T04:33:21.201Z,1.27
2018-01-25T04:35:48.785Z,1.30
2018-01-25T04:38:16.369Z,1.10
2018-01-25T04:40:44.594Z,1.23
2018-01-25T04:43:12.064Z,1.00
2018-01-25T04:45:39.565Z,1.50
2018-01-25T04:48:07.103Z,1.27
2018-01-25T04:50:36.076Z,1.30
2018-01-25T04:53:04.535Z,1.10
2018-01-25T04:55:31.993Z,1.60
2018-01-25T04:57:59.576Z,1.40
2018-01-25T05:00:27.039Z,1.43
2018-01-25T05:02:54.520Z,1.57
2018-01-25T05:05:22.025Z,1.20
2018-01-25T05:07:50.762Z,1.57
2018-01-25T05:10:19.033Z,1.80
2018-01-25T05:12:47.278Z,1.33
2018-01-25T05:15:15.769Z,1.20
2018-01-25T05:17:45.656Z,1.27
2018-01-25T05:20:13.197Z,1.70
2018-01-25T05:22:40.766Z,1.30
2018-01-25T05:25:08.332Z,1.37
2018-01-25T05:27:35.813Z,1.50
2018-01-25T05:30:03.275Z,1.10
2018-01-25T05:32:30.748Z,1.90
2018-01-25T05:34:59.825Z,1.87
2018-01-25T05:37:27.304Z,1.70
2018-01-25T05:39:55.544Z,1.47
2018-01-25T05:42:23.037Z,1.40
2018-01-25T05:44:51.397Z,1.57
2018-01-25T05:47:19.860Z,1.80
2018-01-25T05:49:48.202Z,1.60
2018-01-25T05:52:15.683Z,1.40
2018-01-25T05:54:43.163Z,1.60
2018-01-25T05:57:10.626Z,1.40
2018-01-25T05:59:38.109Z,1.70
2018-01-25T06:02:06.491Z,1.50
2018-01-25T06:04:34.755Z,3.20
2018-01-25T06:07:02.344Z,2.23
2018-01-25T06:09:29.838Z,2.30
2018-01-25T06:11:57.325Z,2.03
2018-01-25T06:14:26.466Z,1.97
2018-01-25T06:16:53.967Z,2.53
2018-01-25T06:19:21.468Z,1.53
2018-01-25T06:21:49.886Z,1.67
2018-01-25T06:24:17.387Z,1.40
2018-01-25T06:26:45.602Z,1.60
2018-01-25T06:29:13.064Z,1.60
2018-01-25T06:31:41.433Z,2.07
2018-01-25T06:34:08.924Z,2.00
2018-01-25T06:36:36.444Z,1.47
2018-01-25T06:39:03.946Z,2.13
2018-01-25T06:41:32.330Z,1.67
2018-01-25T06:44:00.812Z,1.93
2018-01-25T06:46:29.104Z,2.57
2018-01-25T06:48:56.618Z,1.93
2018-01-25T06:51:24.086Z,2.40
2018-01-25T06:53:51.637Z,2.50
2018-01-25T06:56:19.224Z,2.37
2018-01-25T06:58:47.457Z,2.03
2018-01-25T07:01:15.786Z,1.90
2018-01-25T07:03:44.011Z,2.50
2018-01-25T07:06:11.696Z,2.60
2018-01-25T07:08:39.162Z,2.33
2018-01-25T07:11:06.728Z,2.90
2018-01-25T07:13:34.963Z,2.87
2018-01-25T07:16:03.024Z,2.10
2018-01-25T07:18:30.589Z,2.60
2018-01-25T07:20:58.177Z,2.67
2018-01-25T07:23:25.650Z,2.57
2018-01-25T07:25:53.358Z,3.10
2018-01-25T07:28:21.685Z,2.87
2018-01-25T07:30:49.147Z,2.10
2018-01-25T07:33:16.609Z,2.60
2018-01-25T07:35:44.848Z,1.90
2018-01-25T07:38:12.322Z,2.30
2018-01-25T07:40:39.792Z,2.63
2018-01-25T07:43:08.761Z,2.03
2018-01-25T07:45:36.226Z,2.63
2018-01-25T07:48:03.716Z,2.10
2018-01-25T07:50:32.262Z,2.50
2018-01-25T07:52:59.764Z,2.40
2018-01-25T07:55:28.241Z,2.70
2018-01-25T07:58:12.280Z,2.50
2018-01-25T08:00:40.594Z,2.50
2018-01-25T08:03:08.813Z,2.67
2018-01-25T08:05:37.088Z,2.80
2018-01-25T08:08:04.773Z,2.70
2018-01-25T08:10:33.884Z,2.00
2018-01-25T08:13:06.902Z,2.07
2018-01-25T08:15:34.453Z,2.77
2018-01-25T08:18:02.993Z,2.50
2018-01-25T08:20:31.259Z,2.53
2018-01-25T08:22:59.531Z,2.50
2018-01-25T08:25:27.011Z,3.00
2018-01-25T08:27:54.488Z,3.17
2018-01-25T08:30:21.942Z,3.27
2018-01-25T08:32:49.441Z,3.27
2018-01-25T08:35:18.753Z,3.10
2018-01-25T08:37:46.368Z,2.80
2018-01-25T08:40:14.700Z,3.90
2018-01-25T08:42:43.877Z,3.13
2018-01-25T08:45:11.451Z,3.10
2018-01-25T08:47:39.690Z,2.80
2018-01-25T08:50:07.177Z,3.90
2018-01-25T08:52:36.136Z,3.63
2018-01-25T08:55:03.696Z,2.73
2018-01-25T08:57:31.237Z,3.73
2018-01-25T08:59:59.618Z,3.57
2018-01-25T09:02:27.185Z,2.83
2018-01-25T09:04:54.653Z,3.07
2018-01-25T09:07:22.123Z,2.37
2018-01-25T09:09:49.593Z,2.23
2018-01-25T09:12:17.857Z,2.70
2018-01-25T09:14:45.436Z,2.90
2018-01-25T09:17:13.680Z,3.07
2018-01-25T09:19:41.140Z,2.87
2018-01-25T09:22:08.605Z,4.30
2018-01-25T09:24:36.064Z,2.80
2018-01-25T09:27:04.274Z,2.27
2018-01-25T09:29:33.559Z,2.80
2018-01-25T09:32:01.792Z,3.33
2018-01-25T09:34:29.271Z,2.43
2018-01-25T09:36:56.756Z,2.50
2018-01-25T09:39:25.063Z,2.73
2018-01-25T09:41:52.541Z,3.00
2018-01-25T09:44:20.017Z,3.30
2018-01-25T09:46:47.634Z,3.67
2018-01-25T09:49:15.207Z,3.80
2018-01-25T09:51:42.860Z,4.57
2018-01-25T09:54:10.445Z,5.87
2018-01-25T09:56:37.906Z,5.80
2018-01-25T09:59:05.380Z,5.93
2018-01-25T10:01:33.866Z,6.27
2018-01-25T10:04:01.338Z,6.00
2018-01-25T10:06:29.558Z,6.43
2018-01-25T10:08:57.118Z,5.47
2018-01-25T10:11:24.596Z,5.67
2018-01-25T10:13:52.061Z,5.70
2018-01-25T10:16:20.880Z,5.67
2018-01-25T10:18:50.152Z,4.97
2018-01-25T10:21:17.618Z,5.80
2018-01-25T10:23:45.084Z,4.70
2018-01-25T10:26:13.305Z,4.23
2018-01-25T10:28:41.126Z,4.73
2018-01-25T10:31:08.364Z,4.20
2018-01-25T10:33:36.725Z,4.70
2018-01-25T10:36:04.185Z,3.80
2018-01-25T10:38:31.741Z,3.97
2018-01-25T10:40:59.198Z,4.10
2018-01-25T10:43:26.665Z,3.80
2018-01-25T10:45:54.126Z,3.40
2018-01-25T10:48:22.361Z,3.70
2018-01-25T10:50:49.825Z,4.70
2018-01-25T10:53:17.476Z,3.50
2018-01-25T10:55:44.964Z,3.90
2018-01-25T10:58:12.530Z,3.80
2018-01-25T11:00:45.804Z,4.80
2018-01-25T11:03:15.228Z,4.40
2018-01-25T11:05:42.717Z,3.80
2018-01-25T11:08:11.010Z,3.90
2018-01-25T11:10:39.450Z,4.20
2018-01-25T11:13:06.901Z,4.10
2018-01-25T11:15:35.173Z,3.53
2018-01-25T11:18:03.398Z,3.50
2018-01-25T11:20:31.056Z,4.20
2018-01-25T11:22:58.528Z,4.20
2018-01-25T11:25:27.933Z,3.53
2018-01-25T11:27:55.417Z,4.50
2018-01-25T11:30:22.994Z,4.00
2018-01-25T11:32:51.244Z,4.00
2018-01-25T11:35:18.729Z,3.87
2018-01-25T11:37:47.083Z,3.80
2018-01-25T11:40:14.616Z,3.63
2018-01-25T11:42:42.098Z,3.63
2018-01-25T11:45:09.571Z,3.63
2018-01-25T11:47:37.058Z,4.00
2018-01-25T11:50:05.289Z,3.30
2018-01-25T11:52:32.762Z,3.80
2018-01-25T11:55:00.340Z,3.47
2018-01-25T11:57:28.589Z,3.90
2018-01-25T11:59:56.064Z,3.63
2018-01-25T12:02:24.328Z,3.57
2018-01-25T12:04:51.797Z,3.90
2018-01-25T12:07:21.014Z,2.93
2018-01-25T12:09:48.483Z,3.70
2018-01-25T12:12:15.947Z,3.50
2018-01-25T12:14:43.517Z,3.60
2018-01-25T12:17:10.998Z,2.97
2018-01-25T12:19:38.470Z,4.60
2018-01-25T12:22:05.928Z,3.00
2018-01-25T12:24:34.183Z,3.27
2018-01-25T12:27:01.713Z,3.10
2018-01-25T12:29:29.353Z,2.87
2018-01-25T12:31:56.917Z,3.10
2018-01-25T12:34:24.463Z,2.40
2018-01-25T12:36:52.069Z,2.60
2018-01-25T12:39:19.738Z,2.60
2018-01-25T12:41:47.330Z,2.93
2018-01-25T12:44:15.568Z,2.70
2018-01-25T12:46:43.040Z,2.70
2018-01-25T12:49:10.520Z,2.47
2018-01-25T12:51:39.774Z,2.73
2018-01-25T12:54:08.210Z,2.57
2018-01-25T12:56:36.460Z,2.17
2018-01-25T12:59:04.080Z,2.73
2018-01-25T13:01:31.553Z,2.23
2018-01-25T13:03:59.020Z,2.40
2018-01-25T13:06:26.491Z,2.97
2018-01-25T13:08:54.751Z,3.07
2018-01-25T13:11:22.209Z,2.33
2018-01-25T13:13:50.655Z,2.80
2018-01-25T13:16:18.124Z,2.80
2018-01-25T13:18:46.401Z,2.23
2018-01-25T13:21:14.842Z,2.30
2018-01-25T13:23:42.450Z,1.93
2018-01-25T13:26:09.948Z,2.53
2018-01-25T13:28:38.328Z,3.57
2018-01-25T13:31:05.919Z,2.40
2018-01-25T13:33:39.028Z,2.47
2018-01-25T13:36:06.497Z,2.17
2018-01-25T13:38:34.857Z,2.43
2018-01-25T13:41:02.329Z,2.43
2018-01-25T13:43:29.887Z,2.47
2018-01-25T13:45:57.363Z,2.60
2018-01-25T13:48:25.625Z,2.00
2018-01-25T13:50:53.089Z,2.33
2018-01-25T13:53:20.556Z,2.90
2018-01-25T13:55:48.065Z,2.67
2018-01-25T13:58:15.529Z,2.63
2018-01-25T14:00:43.056Z,2.27
2018-01-25T14:03:10.521Z,2.33
2018-01-25T14:05:38.026Z,2.80
2018-01-25T14:08:05.577Z,2.63
2018-01-25T14:10:33.901Z,2.27
2018-01-25T14:13:02.141Z,2.27
2018-01-25T14:15:29.622Z,2.70
2018-01-25T14:17:57.902Z,4.20
2018-01-25T14:20:26.225Z,3.23
2018-01-25T14:22:53.881Z,3.73
2018-01-25T14:25:21.474Z,2.97
2018-01-25T14:27:48.966Z,3.23
2018-01-25T14:30:17.201Z,3.60
2018-01-25T14:32:44.697Z,3.10
2018-01-25T14:35:12.925Z,2.90
2018-01-25T14:37:40.417Z,2.63
2018-01-25T14:40:07.876Z,1.87
2018-01-25T14:42:36.117Z,3.10
2018-01-25T14:45:05.556Z,2.47
2018-01-25T14:47:34.020Z,2.47
2018-01-25T14:50:01.498Z,2.53
2018-01-25T14:52:29.741Z,2.90
2018-01-25T14:54:57.245Z,2.37
2018-01-25T14:57:24.728Z,3.40
2018-01-25T14:59:53.068Z,3.80
2018-01-25T15:02:21.375Z,2.47
2018-01-25T15:04:48.856Z,2.50
2018-01-25T15:07:16.340Z,4.50
2018-01-25T15:09:43.824Z,2.70
2018-01-25T15:12:11.328Z,2.70
2018-01-25T15:14:38.800Z,2.53
2018-01-25T15:17:06.264Z,2.40
2018-01-25T15:19:33.764Z,2.37
2018-01-25T15:22:01.239Z,2.70
2018-01-25T15:24:28.706Z,4.10
2018-01-25T15:26:56.184Z,2.77
2018-01-25T15:29:25.167Z,2.40
2018-01-25T15:31:52.650Z,2.37
2018-01-25T15:34:21.042Z,2.27
2018-01-25T15:36:49.296Z,2.80
2018-01-25T15:39:16.769Z,2.60
2018-01-25T15:41:44.317Z,2.63
2018-01-25T15:44:11.797Z,2.87
2018-01-25T15:46:39.288Z,3.10
2018-01-25T15:49:06.778Z,2.50
2018-01-25T15:51:35.129Z,2.43
2018-01-25T15:54:02.817Z,3.03
2018-01-25T15:56:31.155Z,2.10
2018-01-25T15:58:58.633Z,2.27
2018-01-25T16:01:26.100Z,2.40
2018-01-25T16:03:54.361Z,2.57
2018-01-25T16:06:21.830Z,2.20
2018-01-25T16:08:49.317Z,2.90
2018-01-25T16:11:17.555Z,3.00
2018-01-25T16:13:45.053Z,2.10
2018-01-25T16:16:13.306Z,1.00
2018-01-25T16:18:40.809Z,1.10
2018-01-25T16:21:08.280Z,0.90
2018-01-25T16:23:36.729Z,1.07
2018-01-25T16:26:05.246Z,1.50
2018-01-25T16:28:32.762Z,1.40
2018-01-25T16:31:01.190Z,1.20
2018-01-25T16:33:28.749Z,1.10
2018-01-25T16:35:56.264Z,1.47
2018-01-25T16:38:24.534Z,1.73
2018-01-25T16:40:52.154Z,1.70
2018-01-25T16:43:19.614Z,1.53
2018-01-25T16:45:47.354Z,1.73
2018-01-25T16:48:15.824Z,1.70
2018-01-25T16:50:43.306Z,2.40
2018-01-25T16:53:10.819Z,1.67
2018-01-25T16:55:39.057Z,1.73
2018-01-25T16:58:07.087Z,1.60
2018-01-25T17:00:34.843Z,2.20
2018-01-25T17:03:02.373Z,2.00
2018-01-25T17:05:32.673Z,2.50
2018-01-25T17:08:00.179Z,2.80
2018-01-25T17:10:27.693Z,2.30
2018-01-25T17:12:55.239Z,1.80
2018-01-25T17:15:22.752Z,2.40
2018-01-25T17:17:50.236Z,2.30
2018-01-25T17:20:18.249Z,2.17
2018-01-25T17:22:46.522Z,1.90
2018-01-25T17:25:14.042Z,1.87
2018-01-25T17:27:41.544Z,2.10
2018-01-25T17:30:09.776Z,2.20
2018-01-25T17:32:37.314Z,2.23
2018-01-25T17:35:04.836Z,2.20
2018-01-25T17:37:32.663Z,2.87
2018-01-25T17:40:00.181Z,2.80
2018-01-25T17:42:28.601Z,2.93
2018-01-25T17:44:56.213Z,3.90
2018-01-25T17:47:24.476Z,2.97
2018-01-25T17:49:52.022Z,2.53
2018-01-25T17:52:19.583Z,2.53
2018-01-25T17:54:47.178Z,2.70
2018-01-25T17:57:14.715Z,2.53
2018-01-25T17:59:42.986Z,2.23
2018-01-25T18:02:10.461Z,2.17
2018-01-25T18:04:38.099Z,2.27
2018-01-25T18:07:05.643Z,2.23
2018-01-25T18:09:33.118Z,2.20
2018-01-25T18:12:00.691Z,2.60
2018-01-25T18:14:29.097Z,2.60
2018-01-25T18:16:57.123Z,2.70
2018-01-25T18:19:24.631Z,2.50
2018-01-25T18:21:53.149Z,2.60
2018-01-25T18:24:20.678Z,3.83
2018-01-25T18:26:48.187Z,2.90
2018-01-25T18:29:16.470Z,3.67
2018-01-25T18:31:44.719Z,2.33
2018-01-25T18:34:12.219Z,2.47
2018-01-25T18:36:40.516Z,2.83
2018-01-25T18:39:08.048Z,1.90
2018-01-25T18:41:35.580Z,2.40
2018-01-25T18:44:03.093Z,2.80
2018-01-25T18:46:30.573Z,2.83
2018-01-25T18:48:59.087Z,2.70
2018-01-25T18:51:26.753Z,2.73
2018-01-25T18:53:55.732Z,3.27
2018-01-25T18:56:23.225Z,2.63
2018-01-25T18:58:50.743Z,2.13
2018-01-25T19:01:18.284Z,2.17
2018-01-25T19:03:45.899Z,2.77
2018-01-25T19:06:14.257Z,2.33
2018-01-25T19:08:42.550Z,2.40
2018-01-25T19:11:11.005Z,3.30
2018-01-25T19:13:40.250Z,2.80
2018-01-25T19:16:07.802Z,2.23
2018-01-25T19:18:35.479Z,3.03
2018-01-25T19:21:03.997Z,2.27
2018-01-25T19:23:31.514Z,2.37
2018-01-25T19:25:59.076Z,2.40
2018-01-25T19:28:26.789Z,3.10
2018-01-25T19:30:55.220Z,2.90
2018-01-25T19:33:22.834Z,2.63
2018-01-25T19:35:50.335Z,2.40
2018-01-25T19:38:18.090Z,3.27
2018-01-25T19:40:46.625Z,2.93
2018-01-25T19:43:15.828Z,3.80
2018-01-25T19:45:43.328Z,2.77
2018-01-25T19:48:10.808Z,3.60
2018-01-25T19:50:38.293Z,2.70
2018-01-25T19:53:05.796Z,3.10
2018-01-25T19:55:33.297Z,3.23
2018-01-25T19:58:00.881Z,2.47
2018-01-25T20:00:29.261Z,2.67
2018-01-25T20:02:57.599Z,2.90
2018-01-25T20:05:25.096Z,3.40
2018-01-25T20:07:53.371Z,2.60
2018-01-25T20:10:21.881Z,4.07
2018-01-25T20:12:49.652Z,3.27
2018-01-25T20:15:18.257Z,3.70
2018-01-25T20:17:45.937Z,3.13
2018-01-25T20:20:13.858Z,3.93
2018-01-25T20:22:41.433Z,3.80
2018-01-25T20:25:08.925Z,3.60
2018-01-25T20:27:36.509Z,3.40
2018-01-25T20:30:05.459Z,3.73
2018-01-25T20:32:32.954Z,4.60
2018-01-25T20:35:01.214Z,4.87
2018-01-25T20:37:29.707Z,5.70
2018-01-25T20:39:57.222Z,5.20
2018-01-25T20:42:24.735Z,5.77
2018-01-25T20:44:52.977Z,5.53
2018-01-25T20:47:20.533Z,4.87
2018-01-25T20:49:48.946Z,5.00
2018-01-25T20:52:17.167Z,5.67
2018-01-25T20:54:44.659Z,5.63
2018-01-25T20:57:13.128Z,5.30
2018-01-25T20:59:40.696Z,5.70
2018-01-25T21:02:09.096Z,6.00
2018-01-25T21:04:37.361Z,6.43
2018-01-25T21:07:05.644Z,5.50
2018-01-25T21:09:33.924Z,5.73
2018-01-25T21:12:03.154Z,3.90
2018-01-25T21:14:30.802Z,5.57
2018-01-25T21:16:58.332Z,4.83
2018-01-25T21:19:26.558Z,4.70
2018-01-25T21:21:55.012Z,4.83
2018-01-25T21:24:23.357Z,4.50
2018-01-25T21:26:51.629Z,4.30
2018-01-25T21:29:19.081Z,4.77
2018-01-25T21:31:46.542Z,5.47
2018-01-25T21:34:14.019Z,5.10
2018-01-25T21:36:42.264Z,5.40
2018-01-25T21:39:09.878Z,6.87
2018-01-25T21:41:37.358Z,6.07
2018-01-25T21:44:05.822Z,7.10
2018-01-25T21:46:34.446Z,6.50
2018-01-25T21:49:03.096Z,6.70
2018-01-25T21:51:30.606Z,7.60
2018-01-25T21:53:59.009Z,6.30
2018-01-25T21:56:27.404Z,7.07
2018-01-25T21:58:54.929Z,6.53
2018-01-25T22:01:23.176Z,6.17
2018-01-25T22:03:50.659Z,6.03
2018-01-25T22:06:19.943Z,5.97
2018-01-25T22:08:47.435Z,5.90
2018-01-25T22:11:15.032Z,5.43
2018-01-25T22:13:42.559Z,5.47
2018-01-25T22:16:11.054Z,5.33
2018-01-25T22:18:40.528Z,6.30
2018-01-25T22:21:08.770Z,5.97
2018-01-25T22:23:36.243Z,5.97
2018-01-25T22:26:04.670Z,5.80
2018-01-25T22:28:32.177Z,6.20
2018-01-25T22:30:59.736Z,5.70
2018-01-25T22:33:27.325Z,6.30
2018-01-25T22:35:55.580Z,5.57
2018-01-25T22:38:23.821Z,6.70
2018-01-25T22:40:51.293Z,5.90
2018-01-25T22:43:18.829Z,6.63
2018-01-25T22:45:46.305Z,6.00
2018-01-25T22:48:14.893Z,6.40
2018-01-25T22:50:42.488Z,6.70
2018-01-25T22:53:10.429Z,6.57
2018-01-25T22:55:38.662Z,7.70
2018-01-25T22:58:06.145Z,7.20
2018-01-25T23:00:39.514Z,7.60
2018-01-25T23:03:07.004Z,8.03
2018-01-25T23:05:34.492Z,8.30
2018-01-25T23:08:03.688Z,7.50
2018-01-25T23:10:31.184Z,6.83
2018-01-25T23:12:58.742Z,7.33
2018-01-25T23:15:26.243Z,7.47
2018-01-25T23:17:53.805Z,6.73
2018-01-25T23:20:22.061Z,6.80
2018-01-25T23:22:49.567Z,7.00
2018-01-25T23:25:17.058Z,6.80
2018-01-25T23:27:45.497Z,7.23
2018-01-25T23:30:13.732Z,7.20
2018-01-25T23:32:41.216Z,5.77
2018-01-25T23:35:09.467Z,6.67
2018-01-25T23:37:36.917Z,6.17
2018-01-25T23:40:04.377Z,6.60
2018-01-25T23:42:31.848Z,6.00
2018-01-25T23:45:00.999Z,6.03
2018-01-25T23:47:28.473Z,6.10
2018-01-25T23:49:56.987Z,6.40
2018-01-25T23:52:24.472Z,6.10
2018-01-25T23:54:51.986Z,6.00
2018-01-25T23:57:19.473Z,6.00
2018-01-25T23:59:47.714Z,7.10
